sensor_id;sensor_type;location;lat;lon;timestamp;pressure;altitude;pressure_sealevel;temperature;humidity
57572;BME280;44459;43.522;24.470;2023-06-24T00:01:57;99990.59;;;22.68;100.00
57572;BME280;44459;43.522;24.470;2023-06-24T00:04:23;99999.41;;;22.71;100.00
57572;BME280;44459;43.522;24.470;2023-06-24T00:06:48;100007.56;;;22.70;100.00
57572;BME280;44459;43.522;24.470;2023-06-24T00:09:14;99999.66;;;22.65;100.00
57572;BME280;44459;43.522;24.470;2023-06-24T00:11:39;99999.66;;;22.65;100.00
57572;BME280;44459;43.522;24.470;2023-06-24T00:14:05;100011.97;;;22.71;100.00
57572;BME280;44459;43.522;24.470;2023-06-24T00:16:32;99999.56;;;22.68;100.00
57572;BME280;44459;43.522;24.470;2023-06-24T00:18:57;99991.41;;;22.70;100.00
57572;BME280;44459;43.522;24.470;2023-06-24T00:21:24;99990.31;;;22.74;100.00
57572;BME280;44459;43.522;24.470;2023-06-24T00:23:58;99999.09;;;22.77;100.00
57572;BME280;44459;43.522;24.470;2023-06-24T00:26:27;99993.72;;;22.77;100.00
57572;BME280;44459;43.522;24.470;2023-06-24T00:28:52;99993.72;;;22.77;100.00
57572;BME280;44459;43.522;24.470;2023-06-24T00:31:19;99987.59;;;22.74;100.00
57572;BME280;44459;43.522;24.470;2023-06-24T00:33:45;99992.16;;;22.73;100.00
57572;BME280;44459;43.522;24.470;2023-06-24T00:36:10;99999.56;;;22.68;100.00
57572;BME280;44459;43.522;24.470;2023-06-24T00:38:37;100005.81;;;22.69;100.00
57572;BME280;44459;43.522;24.470;2023-06-24T00:41:03;99994.28;;;22.65;100.00
57572;BME280;44459;43.522;24.470;2023-06-24T00:43:29;99993.56;;;22.62;100.00
57572;BME280;44459;43.522;24.470;2023-06-24T00:45:55;99997.03;;;22.64;100.00
57572;BME280;44459;43.522;24.470;2023-06-24T00:48:21;99990.91;;;22.60;100.00
57572;BME280;44459;43.522;24.470;2023-06-24T00:50:47;99983.97;;;22.56;100.00
57572;BME280;44459;43.522;24.470;2023-06-24T00:53:17;99985.09;;;22.50;100.00
57572;BME280;44459;43.522;24.470;2023-06-24T00:55:44;99980.53;;;22.52;100.00
57572;BME280;44459;43.522;24.470;2023-06-24T00:58:11;99977.84;;;22.52;100.00
57572;BME280;44459;43.522;24.470;2023-06-24T01:00:44;99980.44;;;22.54;100.00
57572;BME280;44459;43.522;24.470;2023-06-24T01:03:11;99976.09;;;22.51;100.00
57572;BME280;44459;43.522;24.470;2023-06-24T01:05:44;99985.25;;;22.47;100.00
57572;BME280;44459;43.522;24.470;2023-06-24T01:08:10;99982.75;;;22.43;100.00
57572;BME280;44459;43.522;24.470;2023-06-24T01:10:41;99990.97;;;22.40;100.00
57572;BME280;44459;43.522;24.470;2023-06-24T01:13:07;99995.47;;;22.39;100.00
57572;BME280;44459;43.522;24.470;2023-06-24T01:15:32;99996.56;;;22.35;100.00
57572;BME280;44459;43.522;24.470;2023-06-24T01:20:36;99989.31;;;22.37;100.00
57572;BME280;44459;43.522;24.470;2023-06-24T01:32:31;99988.50;;;22.35;100.00
57572;BME280;44459;43.522;24.470;2023-06-24T01:35:07;99984.13;;;22.33;100.00
57572;BME280;44459;43.522;24.470;2023-06-24T01:37:41;99972.59;;;22.31;100.00
57572;BME280;44459;43.522;24.470;2023-06-24T01:42:41;99969.06;;;22.29;100.00
57572;BME280;44459;43.522;24.470;2023-06-24T01:45:12;99966.63;;;22.24;100.00
57572;BME280;44459;43.522;24.470;2023-06-24T01:47:40;99984.47;;;22.25;100.00
57572;BME280;44459;43.522;24.470;2023-06-24T01:50:10;99977.38;;;22.24;100.00
57572;BME280;44459;43.522;24.470;2023-06-24T01:52:38;99984.56;;;22.24;100.00
57572;BME280;44459;43.522;24.470;2023-06-24T01:55:07;99980.06;;;22.24;100.00
57572;BME280;44459;43.522;24.470;2023-06-24T01:57:36;99980.22;;;22.21;100.00
57572;BME280;44459;43.522;24.470;2023-06-24T02:00:03;99981.72;;;22.27;100.00
57572;BME280;44459;43.522;24.470;2023-06-24T02:02:32;99985.50;;;22.23;100.00
57572;BME280;44459;43.522;24.470;2023-06-24T02:05:01;99978.75;;;22.14;100.00
57572;BME280;44459;43.522;24.470;2023-06-24T02:07:28;99992.91;;;22.18;100.00
57572;BME280;44459;43.522;24.470;2023-06-24T02:09:55;99987.66;;;22.15;100.00
57572;BME280;44459;43.522;24.470;2023-06-24T02:12:21;100000.16;;;22.16;100.00
57572;BME280;44459;43.522;24.470;2023-06-24T02:14:48;100002.19;;;22.11;100.00
57572;BME280;44459;43.522;24.470;2023-06-24T02:17:14;100002.44;;;22.04;100.00
57572;BME280;44459;43.522;24.470;2023-06-24T02:19:41;100009.72;;;22.02;100.00
57572;BME280;44459;43.522;24.470;2023-06-24T02:22:07;100013.47;;;21.98;100.00
57572;BME280;44459;43.522;24.470;2023-06-24T02:24:36;100004.63;;;21.96;100.00
57572;BME280;44459;43.522;24.470;2023-06-24T02:27:05;100012.69;;;21.96;100.00
57572;BME280;44459;43.522;24.470;2023-06-24T02:29:32;100013.75;;;21.92;100.00
57572;BME280;44459;43.522;24.470;2023-06-24T02:31:59;100012.88;;;21.92;100.00
57572;BME280;44459;43.522;24.470;2023-06-24T02:34:24;100011.31;;;21.86;100.00
57572;BME280;44459;43.522;24.470;2023-06-24T02:36:50;100019.38;;;21.86;100.00
57572;BME280;44459;43.522;24.470;2023-06-24T02:39:16;100009.16;;;21.74;100.00
57572;BME280;44459;43.522;24.470;2023-06-24T02:41:41;100024.34;;;21.75;100.00
57572;BME280;44459;43.522;24.470;2023-06-24T02:44:07;100024.59;;;21.69;100.00
57572;BME280;44459;43.522;24.470;2023-06-24T02:46:34;100016.78;;;21.63;100.00
57572;BME280;44459;43.522;24.470;2023-06-24T02:49:02;100019.59;;;21.60;100.00
57572;BME280;44459;43.522;24.470;2023-06-24T02:51:28;100035.72;;;21.60;100.00
57572;BME280;44459;43.522;24.470;2023-06-24T02:53:55;100033.22;;;21.55;100.00
57572;BME280;44459;43.522;24.470;2023-06-24T02:56:24;100033.31;;;21.54;100.00
57572;BME280;44459;43.522;24.470;2023-06-24T02:58:51;100022.69;;;21.51;100.00
57572;BME280;44459;43.522;24.470;2023-06-24T03:01:18;100036.78;;;21.56;100.00
57572;BME280;44459;43.522;24.470;2023-06-24T03:03:53;100048.34;;;21.58;100.00
57572;BME280;44459;43.522;24.470;2023-06-24T03:06:19;100037.75;;;21.55;100.00
57572;BME280;44459;43.522;24.470;2023-06-24T03:08:45;100046.56;;;21.58;100.00
57572;BME280;44459;43.522;24.470;2023-06-24T03:11:14;100038.41;;;21.60;100.00
57572;BME280;44459;43.522;24.470;2023-06-24T03:13:40;100026.88;;;21.58;100.00
57572;BME280;44459;43.522;24.470;2023-06-24T03:16:06;100036.34;;;21.67;100.00
57572;BME280;44459;43.522;24.470;2023-06-24T03:18:40;100034.25;;;21.73;100.00
57572;BME280;44459;43.522;24.470;2023-06-24T03:21:05;100035.28;;;21.71;100.00
57572;BME280;44459;43.522;24.470;2023-06-24T03:23:31;100032.53;;;21.72;100.00
57572;BME280;44459;43.522;24.470;2023-06-24T03:25:57;100038.69;;;21.74;100.00
57572;BME280;44459;43.522;24.470;2023-06-24T03:28:22;100044.91;;;21.76;100.00
57572;BME280;44459;43.522;24.470;2023-06-24T03:30:47;100046.34;;;21.83;100.00
57572;BME280;44459;43.522;24.470;2023-06-24T03:33:13;100053.00;;;21.96;100.00
57572;BME280;44459;43.522;24.470;2023-06-24T03:35:44;100061.53;;;22.06;100.00
57572;BME280;44459;43.522;24.470;2023-06-24T03:38:10;100057.56;;;22.15;100.00
57572;BME280;44459;43.522;24.470;2023-06-24T03:40:37;100055.50;;;22.21;100.00
57572;BME280;44459;43.522;24.470;2023-06-24T03:43:02;100057.91;;;22.27;100.00
57572;BME280;44459;43.522;24.470;2023-06-24T03:45:27;100061.84;;;22.39;100.00
57572;BME280;44459;43.522;24.470;2023-06-24T03:47:53;100076.88;;;22.44;100.00
57572;BME280;44459;43.522;24.470;2023-06-24T03:50:18;100082.84;;;22.51;100.00
57572;BME280;44459;43.522;24.470;2023-06-24T03:52:44;100085.38;;;22.54;100.00
57572;BME280;44459;43.522;24.470;2023-06-24T03:55:10;100092.38;;;22.58;100.00
57572;BME280;44459;43.522;24.470;2023-06-24T03:57:36;100094.00;;;22.62;100.00
57572;BME280;44459;43.522;24.470;2023-06-24T04:00:02;100084.03;;;22.64;100.00
57572;BME280;44459;43.522;24.470;2023-06-24T04:02:37;100081.75;;;22.75;100.00
57572;BME280;44459;43.522;24.470;2023-06-24T04:05:03;100078.72;;;22.83;100.00
57572;BME280;44459;43.522;24.470;2023-06-24T04:07:31;100074.19;;;23.02;100.00
57572;BME280;44459;43.522;24.470;2023-06-24T04:09:57;100076.09;;;23.19;100.00
57572;BME280;44459;43.522;24.470;2023-06-24T04:12:23;100074.41;;;23.35;100.00
57572;BME280;44459;43.522;24.470;2023-06-24T04:14:49;100078.44;;;23.45;100.00
57572;BME280;44459;43.522;24.470;2023-06-24T04:17:14;100076.72;;;23.61;100.00
57572;BME280;44459;43.522;24.470;2023-06-24T04:19:40;100079.69;;;23.74;100.00
57572;BME280;44459;43.522;24.470;2023-06-24T04:22:06;100074.22;;;23.92;100.00
57572;BME280;44459;43.522;24.470;2023-06-24T04:24:31;100075.97;;;24.11;100.00
57572;BME280;44459;43.522;24.470;2023-06-24T04:26:57;100082.78;;;24.19;99.24
57572;BME280;44459;43.522;24.470;2023-06-24T04:29:23;100080.13;;;24.35;98.89
57572;BME280;44459;43.522;24.470;2023-06-24T04:31:48;100080.09;;;24.52;98.44
57572;BME280;44459;43.522;24.470;2023-06-24T04:34:14;100083.81;;;24.67;95.06
57572;BME280;44459;43.522;24.470;2023-06-24T04:36:39;100078.72;;;24.78;95.31
57572;BME280;44459;43.522;24.470;2023-06-24T04:39:05;100076.22;;;24.90;95.75
57572;BME280;44459;43.522;24.470;2023-06-24T04:41:30;100078.88;;;25.08;94.59
57572;BME280;44459;43.522;24.470;2023-06-24T04:43:57;100064.69;;;25.20;94.77
57572;BME280;44459;43.522;24.470;2023-06-24T04:46:23;100067.19;;;25.38;93.41
57572;BME280;44459;43.522;24.470;2023-06-24T04:48:48;100080.66;;;25.56;92.79
57572;BME280;44459;43.522;24.470;2023-06-24T04:51:14;100087.63;;;25.75;90.07
57572;BME280;44459;43.522;24.470;2023-06-24T04:53:40;100082.59;;;25.83;88.51
57572;BME280;44459;43.522;24.470;2023-06-24T04:56:05;100093.59;;;25.96;88.84
57572;BME280;44459;43.522;24.470;2023-06-24T04:58:31;100079.19;;;25.95;87.96
57572;BME280;44459;43.522;24.470;2023-06-24T05:00:56;100092.47;;;26.14;88.66
57572;BME280;44459;43.522;24.470;2023-06-24T05:03:22;100092.16;;;26.20;87.52
57572;BME280;44459;43.522;24.470;2023-06-24T05:05:47;100102.16;;;26.34;88.33
57572;BME280;44459;43.522;24.470;2023-06-24T05:08:13;100102.00;;;26.51;86.86
57572;BME280;44459;43.522;24.470;2023-06-24T05:10:38;100106.56;;;26.65;87.07
57572;BME280;44459;43.522;24.470;2023-06-24T05:13:04;100089.72;;;26.74;85.52
57572;BME280;44459;43.522;24.470;2023-06-24T05:15:29;100105.34;;;26.98;85.46
57572;BME280;44459;43.522;24.470;2023-06-24T05:17:55;100098.94;;;27.14;85.28
57572;BME280;44459;43.522;24.470;2023-06-24T05:20:21;100103.56;;;27.26;83.40
57572;BME280;44459;43.522;24.470;2023-06-24T05:22:46;100096.94;;;27.44;83.48
57572;BME280;44459;43.522;24.470;2023-06-24T05:25:17;100102.53;;;27.69;82.88
57572;BME280;44459;43.522;24.470;2023-06-24T05:27:42;100100.75;;;27.82;80.71
57572;BME280;44459;43.522;24.470;2023-06-24T05:30:10;100095.25;;;27.96;80.13
57572;BME280;44459;43.522;24.470;2023-06-24T05:32:35;100101.41;;;28.13;78.46
57572;BME280;44459;43.522;24.470;2023-06-24T05:35:01;100100.69;;;28.36;78.90
57572;BME280;44459;43.522;24.470;2023-06-24T05:37:26;100103.88;;;28.55;77.42
57572;BME280;44459;43.522;24.470;2023-06-24T05:39:52;100109.34;;;28.68;76.52
57572;BME280;44459;43.522;24.470;2023-06-24T05:42:18;100112.16;;;28.91;75.87
57572;BME280;44459;43.522;24.470;2023-06-24T05:44:43;100110.97;;;28.95;72.08
57572;BME280;44459;43.522;24.470;2023-06-24T05:47:08;100122.41;;;29.01;74.42
57572;BME280;44459;43.522;24.470;2023-06-24T05:49:34;100124.53;;;29.21;74.33
57572;BME280;44459;43.522;24.470;2023-06-24T05:51:59;100124.34;;;29.36;73.88
57572;BME280;44459;43.522;24.470;2023-06-24T05:54:25;100126.56;;;29.55;74.53
57572;BME280;44459;43.522;24.470;2023-06-24T05:56:50;100127.97;;;29.61;69.20
57572;BME280;44459;43.522;24.470;2023-06-24T05:59:16;100123.84;;;29.55;69.49
57572;BME280;44459;43.522;24.470;2023-06-24T06:01:41;100128.63;;;29.64;71.71
57572;BME280;44459;43.522;24.470;2023-06-24T06:04:06;100124.44;;;29.71;69.23
57572;BME280;44459;43.522;24.470;2023-06-24T06:06:32;100123.09;;;29.89;69.27
57572;BME280;44459;43.522;24.470;2023-06-24T06:08:57;100134.69;;;30.04;67.24
57572;BME280;44459;43.522;24.470;2023-06-24T06:11:23;100139.72;;;29.98;67.61
57572;BME280;44459;43.522;24.470;2023-06-24T06:13:48;100138.56;;;29.89;67.46
57572;BME280;44459;43.522;24.470;2023-06-24T06:16:14;100140.44;;;29.76;68.77
57572;BME280;44459;43.522;24.470;2023-06-24T06:18:39;100140.25;;;30.03;65.97
57572;BME280;44459;43.522;24.470;2023-06-24T06:21:04;100141.09;;;30.27;66.71
57572;BME280;44459;43.522;24.470;2023-06-24T06:23:30;100144.44;;;30.43;66.24
57572;BME280;44459;43.522;24.470;2023-06-24T06:25:55;100150.59;;;30.45;64.92
57572;BME280;44459;43.522;24.470;2023-06-24T06:28:21;100148.13;;;30.42;64.74
57572;BME280;44459;43.522;24.470;2023-06-24T06:30:46;100139.66;;;30.10;67.08
57572;BME280;44459;43.522;24.470;2023-06-24T06:33:11;100149.00;;;30.19;67.07
57572;BME280;44459;43.522;24.470;2023-06-24T06:35:37;100140.28;;;30.61;66.22
57572;BME280;44459;43.522;24.470;2023-06-24T06:38:02;100138.63;;;31.05;68.19
57572;BME280;44459;43.522;24.470;2023-06-24T06:40:28;100139.25;;;31.19;66.15
57572;BME280;44459;43.522;24.470;2023-06-24T06:42:54;100141.34;;;31.38;60.37
57572;BME280;44459;43.522;24.470;2023-06-24T06:45:19;100143.00;;;31.40;61.46
57572;BME280;44459;43.522;24.470;2023-06-24T06:47:45;100151.81;;;31.55;60.34
57572;BME280;44459;43.522;24.470;2023-06-24T06:50:10;100151.22;;;31.52;60.60
57572;BME280;44459;43.522;24.470;2023-06-24T06:52:36;100141.84;;;31.43;60.58
57572;BME280;44459;43.522;24.470;2023-06-24T06:55:01;100129.97;;;31.55;59.72
57572;BME280;44459;43.522;24.470;2023-06-24T06:57:27;100137.63;;;31.50;61.72
57572;BME280;44459;43.522;24.470;2023-06-24T06:59:53;100134.94;;;31.61;60.93
57572;BME280;44459;43.522;24.470;2023-06-24T07:02:18;100141.44;;;31.92;61.52
57572;BME280;44459;43.522;24.470;2023-06-24T07:04:44;100136.06;;;32.13;58.45
57572;BME280;44459;43.522;24.470;2023-06-24T07:07:10;100130.75;;;32.32;57.83
57572;BME280;44459;43.522;24.470;2023-06-24T07:09:35;100125.13;;;32.45;56.23
57572;BME280;44459;43.522;24.470;2023-06-24T07:12:01;100137.03;;;32.75;56.64
57572;BME280;44459;43.522;24.470;2023-06-24T07:14:27;100127.56;;;32.79;53.46
57572;BME280;44459;43.522;24.470;2023-06-24T07:16:52;100129.19;;;32.91;53.36
57572;BME280;44459;43.522;24.470;2023-06-24T07:19:18;100127.47;;;32.90;53.20
57572;BME280;44459;43.522;24.470;2023-06-24T07:21:43;100119.66;;;32.86;54.10
57572;BME280;44459;43.522;24.470;2023-06-24T07:24:09;100129.94;;;32.94;53.37
57572;BME280;44459;43.522;24.470;2023-06-24T07:26:34;100127.22;;;32.94;55.33
57572;BME280;44459;43.522;24.470;2023-06-24T07:29:01;100126.78;;;33.19;53.41
57572;BME280;44459;43.522;24.470;2023-06-24T07:31:27;100120.19;;;33.21;50.93
57572;BME280;44459;43.522;24.470;2023-06-24T07:33:52;100130.59;;;33.37;49.72
57572;BME280;44459;43.522;24.470;2023-06-24T07:36:18;100116.31;;;33.33;48.74
57572;BME280;44459;43.522;24.470;2023-06-24T07:38:44;100123.34;;;33.26;51.73
57572;BME280;44459;43.522;24.470;2023-06-24T07:41:09;100122.47;;;33.26;49.79
57572;BME280;44459;43.522;24.470;2023-06-24T07:43:35;100117.81;;;33.47;49.98
57572;BME280;44459;43.522;24.470;2023-06-24T07:46:00;100117.66;;;33.88;52.07
57572;BME280;44459;43.522;24.470;2023-06-24T07:48:26;100110.59;;;34.05;46.07
57572;BME280;44459;43.522;24.470;2023-06-24T07:50:51;100118.13;;;34.13;47.32
57572;BME280;44459;43.522;24.470;2023-06-24T07:53:16;100116.94;;;34.06;46.12
57572;BME280;44459;43.522;24.470;2023-06-24T07:55:42;100118.16;;;34.22;46.08
57572;BME280;44459;43.522;24.470;2023-06-24T07:58:07;100122.50;;;34.15;48.84
57572;BME280;44459;43.522;24.470;2023-06-24T08:00:33;100118.09;;;33.84;47.45
57572;BME280;44459;43.522;24.470;2023-06-24T08:02:59;100116.06;;;33.76;48.12
57572;BME280;44459;43.522;24.470;2023-06-24T08:05:24;100112.00;;;33.71;48.23
57572;BME280;44459;43.522;24.470;2023-06-24T08:07:51;100122.84;;;33.82;48.17
57572;BME280;44459;43.522;24.470;2023-06-24T08:10:16;100120.78;;;33.74;47.38
57572;BME280;44459;43.522;24.470;2023-06-24T08:12:42;100109.81;;;33.65;47.60
57572;BME280;44459;43.522;24.470;2023-06-24T08:15:07;100116.63;;;33.80;47.47
57572;BME280;44459;43.522;24.470;2023-06-24T08:17:33;100105.56;;;34.01;48.42
57572;BME280;44459;43.522;24.470;2023-06-24T08:19:58;100117.28;;;34.31;45.24
57572;BME280;44459;43.522;24.470;2023-06-24T08:22:24;100105.44;;;34.60;45.18
57572;BME280;44459;43.522;24.470;2023-06-24T08:24:49;100118.97;;;34.61;45.01
57572;BME280;44459;43.522;24.470;2023-06-24T08:27:15;100111.34;;;34.55;43.15
57572;BME280;44459;43.522;24.470;2023-06-24T08:29:40;100116.41;;;34.69;44.86
57572;BME280;44459;43.522;24.470;2023-06-24T08:32:06;100110.03;;;34.59;45.68
57572;BME280;44459;43.522;24.470;2023-06-24T08:34:32;100108.88;;;34.71;42.67
57572;BME280;44459;43.522;24.470;2023-06-24T08:36:58;100111.78;;;34.70;42.83
57572;BME280;44459;43.522;24.470;2023-06-24T08:39:23;100104.81;;;34.95;44.91
57572;BME280;44459;43.522;24.470;2023-06-24T08:41:49;100096.09;;;34.99;43.85
57572;BME280;44459;43.522;24.470;2023-06-24T08:44:14;100100.44;;;35.11;42.40
57572;BME280;44459;43.522;24.470;2023-06-24T08:46:40;100097.19;;;35.25;41.00
57572;BME280;44459;43.522;24.470;2023-06-24T08:49:13;100102.84;;;35.51;41.40
57572;BME280;44459;43.522;24.470;2023-06-24T08:51:44;100104.78;;;35.68;42.71
57572;BME280;44459;43.522;24.470;2023-06-24T08:54:13;100097.44;;;35.87;41.27
57572;BME280;44459;43.522;24.470;2023-06-24T08:56:41;100102.91;;;36.14;42.10
57572;BME280;44459;43.522;24.470;2023-06-24T08:59:08;100096.00;;;36.10;38.47
57572;BME280;44459;43.522;24.470;2023-06-24T09:01:34;100103.00;;;36.22;39.80
57572;BME280;44459;43.522;24.470;2023-06-24T09:03:59;100092.63;;;36.33;41.14
57572;BME280;44459;43.522;24.470;2023-06-24T09:06:25;100090.25;;;36.39;39.12
57572;BME280;44459;43.522;24.470;2023-06-24T09:08:54;100096.84;;;36.63;38.93
57572;BME280;44459;43.522;24.470;2023-06-24T09:11:24;100093.41;;;36.61;38.55
57572;BME280;44459;43.522;24.470;2023-06-24T09:13:56;100096.19;;;36.69;40.08
57572;BME280;44459;43.522;24.470;2023-06-24T09:16:22;100103.50;;;36.78;38.26
57572;BME280;44459;43.522;24.470;2023-06-24T09:18:49;100094.66;;;37.01;41.13
57572;BME280;44459;43.522;24.470;2023-06-24T09:21:35;100094.13;;;36.97;39.51
57572;BME280;44459;43.522;24.470;2023-06-24T09:24:00;100087.16;;;37.03;37.72
57572;BME280;44459;43.522;24.470;2023-06-24T09:26:27;100092.03;;;36.91;38.20
57572;BME280;44459;43.522;24.470;2023-06-24T09:28:54;100097.50;;;36.57;37.69
57572;BME280;44459;43.522;24.470;2023-06-24T09:31:20;100086.78;;;36.37;36.80
57572;BME280;44459;43.522;24.470;2023-06-24T09:33:48;100080.94;;;35.87;38.89
57572;BME280;44459;43.522;24.470;2023-06-24T09:36:14;100087.88;;;35.91;38.82
57572;BME280;44459;43.522;24.470;2023-06-24T09:38:41;100090.03;;;35.69;37.96
57572;BME280;44459;43.522;24.470;2023-06-24T09:41:08;100097.28;;;35.70;38.98
57572;BME280;44459;43.522;24.470;2023-06-24T09:43:37;100096.66;;;35.76;40.68
57572;BME280;44459;43.522;24.470;2023-06-24T09:46:05;100090.34;;;36.11;43.54
57572;BME280;44459;43.522;24.470;2023-06-24T09:48:32;100090.41;;;36.37;44.34
57572;BME280;44459;43.522;24.470;2023-06-24T09:51:00;100090.78;;;36.60;42.78
57572;BME280;44459;43.522;24.470;2023-06-24T09:53:33;100088.09;;;36.68;40.56
57572;BME280;44459;43.522;24.470;2023-06-24T09:56:03;100093.06;;;36.64;40.08
57572;BME280;44459;43.522;24.470;2023-06-24T09:58:32;100086.91;;;36.70;41.57
57572;BME280;44459;43.522;24.470;2023-06-24T10:01:02;100077.53;;;36.81;42.18
57572;BME280;44459;43.522;24.470;2023-06-24T10:03:30;100081.91;;;36.92;39.72
57572;BME280;44459;43.522;24.470;2023-06-24T10:05:57;100076.44;;;37.00;35.94
57572;BME280;44459;43.522;24.470;2023-06-24T10:08:23;100085.81;;;36.63;35.82
57572;BME280;44459;43.522;24.470;2023-06-24T10:10:48;100080.09;;;36.39;39.74
57572;BME280;44459;43.522;24.470;2023-06-24T10:13:15;100073.28;;;36.43;36.69
57572;BME280;44459;43.522;24.470;2023-06-24T10:15:40;100075.03;;;36.52;38.09
57572;BME280;44459;43.522;24.470;2023-06-24T10:20:56;100078.91;;;37.03;40.02
57572;BME280;44459;43.522;24.470;2023-06-24T10:23:21;100080.31;;;37.15;42.13
57572;BME280;44459;43.522;24.470;2023-06-24T10:25:48;100077.63;;;37.23;42.41
57572;BME280;44459;43.522;24.470;2023-06-24T10:28:13;100077.16;;;37.36;36.72
57572;BME280;44459;43.522;24.470;2023-06-24T10:30:39;100075.53;;;37.17;35.73
57572;BME280;44459;43.522;24.470;2023-06-24T10:33:09;100075.19;;;37.20;35.59
57572;BME280;44459;43.522;24.470;2023-06-24T10:35:41;100067.56;;;37.06;33.92
57572;BME280;44459;43.522;24.470;2023-06-24T10:38:10;100082.44;;;37.21;35.31
57572;BME280;44459;43.522;24.470;2023-06-24T10:40:40;100073.00;;;37.31;38.77
57572;BME280;44459;43.522;24.470;2023-06-24T10:43:26;100064.97;;;37.38;37.33
57572;BME280;44459;43.522;24.470;2023-06-24T10:45:54;100058.13;;;37.50;35.11
57572;BME280;44459;43.522;24.470;2023-06-24T10:48:20;100062.31;;;37.62;36.33
57572;BME280;44459;43.522;24.470;2023-06-24T10:50:46;100058.53;;;37.71;34.72
57572;BME280;44459;43.522;24.470;2023-06-24T10:53:13;100066.84;;;37.88;34.34
57572;BME280;44459;43.522;24.470;2023-06-24T10:55:39;100058.25;;;37.41;32.91
57572;BME280;44459;43.522;24.470;2023-06-24T10:58:09;100049.84;;;37.08;32.84
57572;BME280;44459;43.522;24.470;2023-06-24T11:00:34;100040.81;;;36.98;32.84
57572;BME280;44459;43.522;24.470;2023-06-24T11:03:16;100032.41;;;37.00;33.21
57572;BME280;44459;43.522;24.470;2023-06-24T11:05:44;100029.88;;;37.06;32.86
57572;BME280;44459;43.522;24.470;2023-06-24T11:08:10;100019.94;;;37.13;32.40
57572;BME280;44459;43.522;24.470;2023-06-24T11:10:46;100021.88;;;37.21;32.45
57572;BME280;44459;43.522;24.470;2023-06-24T11:13:12;100011.22;;;37.42;33.12
57572;BME280;44459;43.522;24.470;2023-06-24T11:15:39;100023.34;;;37.49;32.14
57572;BME280;44459;43.522;24.470;2023-06-24T11:18:10;100015.63;;;37.19;31.67
57572;BME280;44459;43.522;24.470;2023-06-24T11:20:37;100011.53;;;36.89;32.53
57572;BME280;44459;43.522;24.470;2023-06-24T11:23:06;100001.81;;;37.03;32.01
57572;BME280;44459;43.522;24.470;2023-06-24T11:25:39;100006.91;;;36.64;31.10
57572;BME280;44459;43.522;24.470;2023-06-24T11:28:04;99997.16;;;36.26;31.53
57572;BME280;44459;43.522;24.470;2023-06-24T11:30:34;99996.91;;;36.37;32.50
57572;BME280;44459;43.522;24.470;2023-06-24T11:32:59;99991.94;;;36.58;31.18
57572;BME280;44459;43.522;24.470;2023-06-24T11:35:25;99986.50;;;36.74;30.63
57572;BME280;44459;43.522;24.470;2023-06-24T11:37:50;99989.22;;;37.00;32.08
57572;BME280;44459;43.522;24.470;2023-06-24T11:40:18;99977.19;;;37.01;29.19
57572;BME280;44459;43.522;24.470;2023-06-24T11:42:44;99975.31;;;37.02;31.71
57572;BME280;44459;43.522;24.470;2023-06-24T11:45:13;99972.75;;;37.08;29.56
57572;BME280;44459;43.522;24.470;2023-06-24T11:47:42;99968.94;;;37.01;30.72
57572;BME280;44459;43.522;24.470;2023-06-24T11:50:08;99977.22;;;36.75;31.08
57572;BME280;44459;43.522;24.470;2023-06-24T11:55:22;99968.16;;;36.91;31.54
57572;BME280;44459;43.522;24.470;2023-06-24T12:00:19;99978.56;;;36.71;30.41
57572;BME280;44459;43.522;24.470;2023-06-24T12:02:44;99971.66;;;36.67;30.26
57572;BME280;44459;43.522;24.470;2023-06-24T12:05:10;99976.19;;;36.51;30.19
57572;BME280;44459;43.522;24.470;2023-06-24T12:07:35;99971.22;;;36.54;30.63
57572;BME280;44459;43.522;24.470;2023-06-24T12:10:01;99981.69;;;36.76;30.52
57572;BME280;44459;43.522;24.470;2023-06-24T12:12:26;99965.16;;;36.68;28.57
57572;BME280;44459;43.522;24.470;2023-06-24T12:14:52;99970.13;;;36.73;28.78
57572;BME280;44459;43.522;24.470;2023-06-24T12:17:17;99975.16;;;36.77;29.60
57572;BME280;44459;43.522;24.470;2023-06-24T12:19:43;99966.97;;;36.94;30.79
57572;BME280;44459;43.522;24.470;2023-06-24T12:22:08;99973.84;;;37.23;30.12
57572;BME280;44459;43.522;24.470;2023-06-24T12:24:34;99968.16;;;37.25;28.64
57572;BME280;44459;43.522;24.470;2023-06-24T12:26:59;99961.16;;;36.97;29.10
57572;BME280;44459;43.522;24.470;2023-06-24T12:29:25;99962.94;;;37.06;28.21
57572;BME280;44459;43.522;24.470;2023-06-24T12:31:50;99969.78;;;37.02;30.58
57572;BME280;44459;43.522;24.470;2023-06-24T12:34:16;99956.06;;;37.10;29.18
57572;BME280;44459;43.522;24.470;2023-06-24T12:36:41;99957.47;;;37.14;30.03
57572;BME280;44459;43.522;24.470;2023-06-24T12:39:06;99958.38;;;36.89;27.40
57572;BME280;44459;43.522;24.470;2023-06-24T12:41:32;99959.88;;;36.83;32.24
57572;BME280;44459;43.522;24.470;2023-06-24T12:43:58;99970.91;;;37.17;29.14
57572;BME280;44459;43.522;24.470;2023-06-24T12:46:24;99962.78;;;37.15;28.80
57572;BME280;44459;43.522;24.470;2023-06-24T12:48:49;99958.03;;;36.92;28.31
57572;BME280;44459;43.522;24.470;2023-06-24T12:51:14;99962.50;;;36.93;28.37
57572;BME280;44459;43.522;24.470;2023-06-24T12:53:40;99961.91;;;37.07;28.35
57572;BME280;44459;43.522;24.470;2023-06-24T12:56:05;99961.09;;;37.22;29.61
57572;BME280;44459;43.522;24.470;2023-06-24T12:58:31;99950.91;;;37.15;28.68
57572;BME280;44459;43.522;24.470;2023-06-24T13:00:57;99936.34;;;36.89;28.58